sensor_id;sensor_type;location;lat;lon;timestamp;P1;durP1;ratioP1;P2;durP2;ratioP2
14686;SDS011;7431;49.440;11.084;2023-12-22T00:02:12;3.57;;;1.23;;
14686;SDS011;7431;49.440;11.084;2023-12-22T00:04:37;5.37;;;0.93;;
14686;SDS011;7431;49.440;11.084;2023-12-22T00:07:03;0.40;;;0.40;;
14686;SDS011;7431;49.440;11.084;2023-12-22T00:09:29;1.83;;;0.80;;
14686;SDS011;7431;49.440;11.084;2023-12-22T00:11:54;4.47;;;0.80;;
14686;SDS011;7431;49.440;11.084;2023-12-22T00:14:20;4.73;;;1.33;;
14686;SDS011;7431;49.440;11.084;2023-12-22T00:16:45;0.80;;;0.80;;
14686;SDS011;7431;49.440;11.084;2023-12-22T00:19:11;1.30;;;0.80;;
14686;SDS011;7431;49.440;11.084;2023-12-22T00:21:36;3.40;;;0.70;;
14686;SDS011;7431;49.440;11.084;2023-12-22T00:24:02;1.77;;;0.50;;
14686;SDS011;7431;49.440;11.084;2023-12-22T00:26:28;1.20;;;0.93;;
14686;SDS011;7431;49.440;11.084;2023-12-22T00:28:53;2.47;;;1.07;;
14686;SDS011;7431;49.440;11.084;2023-12-22T00:31:19;0.77;;;0.77;;
14686;SDS011;7431;49.440;11.084;2023-12-22T00:33:44;0.77;;;0.63;;
14686;SDS011;7431;49.440;11.084;2023-12-22T00:36:10;1.83;;;0.90;;
14686;SDS011;7431;49.440;11.084;2023-12-22T00:38:35;1.40;;;0.80;;
14686;SDS011;7431;49.440;11.084;2023-12-22T00:41:01;0.77;;;0.77;;
14686;SDS011;7431;49.440;11.084;2023-12-22T00:43:26;2.13;;;1.23;;
14686;SDS011;7431;49.440;11.084;2023-12-22T00:45:58;5.73;;;1.77;;
14686;SDS011;7431;49.440;11.084;2023-12-22T00:48:23;1.70;;;0.90;;
14686;SDS011;7431;49.440;11.084;2023-12-22T00:50:49;3.83;;;1.00;;
14686;SDS011;7431;49.440;11.084;2023-12-22T00:53:14;2.83;;;1.20;;
14686;SDS011;7431;49.440;11.084;2023-12-22T00:55:40;2.10;;;1.27;;
14686;SDS011;7431;49.440;11.084;2023-12-22T00:58:05;3.50;;;1.07;;
14686;SDS011;7431;49.440;11.084;2023-12-22T01:00:31;1.27;;;0.83;;
14686;SDS011;7431;49.440;11.084;2023-12-22T01:02:56;5.47;;;1.77;;
14686;SDS011;7431;49.440;11.084;2023-12-22T01:05:22;6.93;;;1.17;;
14686;SDS011;7431;49.440;11.084;2023-12-22T01:07:48;1.73;;;0.93;;
14686;SDS011;7431;49.440;11.084;2023-12-22T01:10:13;2.23;;;1.10;;
14686;SDS011;7431;49.440;11.084;2023-12-22T01:12:39;1.80;;;0.80;;
14686;SDS011;7431;49.440;11.084;2023-12-22T01:15:04;1.83;;;0.73;;
14686;SDS011;7431;49.440;11.084;2023-12-22T01:17:30;2.90;;;0.77;;
14686;SDS011;7431;49.440;11.084;2023-12-22T01:19:56;4.50;;;1.23;;
14686;SDS011;7431;49.440;11.084;2023-12-22T01:22:22;2.83;;;0.97;;
14686;SDS011;7431;49.440;11.084;2023-12-22T01:24:48;3.30;;;1.33;;
14686;SDS011;7431;49.440;11.084;2023-12-22T01:27:14;4.23;;;1.60;;
14686;SDS011;7431;49.440;11.084;2023-12-22T01:29:40;6.20;;;1.10;;
14686;SDS011;7431;49.440;11.084;2023-12-22T01:32:05;2.37;;;1.30;;
14686;SDS011;7431;49.440;11.084;2023-12-22T01:34:31;4.53;;;1.03;;
14686;SDS011;7431;49.440;11.084;2023-12-22T01:36:57;1.00;;;0.97;;
14686;SDS011;7431;49.440;11.084;2023-12-22T01:39:22;1.10;;;0.80;;
14686;SDS011;7431;49.440;11.084;2023-12-22T01:41:49;2.90;;;1.27;;
14686;SDS011;7431;49.440;11.084;2023-12-22T01:44:15;4.73;;;0.97;;
14686;SDS011;7431;49.440;11.084;2023-12-22T01:46:40;2.30;;;1.00;;
14686;SDS011;7431;49.440;11.084;2023-12-22T01:49:06;1.27;;;0.80;;
14686;SDS011;7431;49.440;11.084;2023-12-22T01:51:33;1.33;;;1.00;;
14686;SDS011;7431;49.440;11.084;2023-12-22T01:54:00;4.90;;;1.23;;
14686;SDS011;7431;49.440;11.084;2023-12-22T01:56:26;1.17;;;0.70;;
14686;SDS011;7431;49.440;11.084;2023-12-22T01:58:54;0.60;;;0.60;;
14686;SDS011;7431;49.440;11.084;2023-12-22T02:01:22;1.87;;;0.90;;
14686;SDS011;7431;49.440;11.084;2023-12-22T02:03:49;6.63;;;1.23;;
14686;SDS011;7431;49.440;11.084;2023-12-22T02:06:19;1.83;;;1.13;;
14686;SDS011;7431;49.440;11.084;2023-12-22T02:08:48;1.07;;;0.80;;
14686;SDS011;7431;49.440;11.084;2023-12-22T02:11:14;0.90;;;0.73;;
14686;SDS011;7431;49.440;11.084;2023-12-22T02:13:40;0.40;;;0.40;;
14686;SDS011;7431;49.440;11.084;2023-12-22T02:16:10;1.17;;;0.60;;
14686;SDS011;7431;49.440;11.084;2023-12-22T02:18:42;2.63;;;0.83;;
14686;SDS011;7431;49.440;11.084;2023-12-22T02:21:09;1.30;;;0.77;;
14686;SDS011;7431;49.440;11.084;2023-12-22T02:23:35;0.80;;;0.70;;
14686;SDS011;7431;49.440;11.084;2023-12-22T02:26:06;2.53;;;1.20;;
14686;SDS011;7431;49.440;11.084;2023-12-22T02:28:37;2.23;;;0.70;;
14686;SDS011;7431;49.440;11.084;2023-12-22T02:33:46;0.80;;;0.70;;
14686;SDS011;7431;49.440;11.084;2023-12-22T02:36:14;0.23;;;0.23;;
14686;SDS011;7431;49.440;11.084;2023-12-22T02:38:41;2.43;;;0.67;;
14686;SDS011;7431;49.440;11.084;2023-12-22T02:41:08;4.13;;;0.70;;
14686;SDS011;7431;49.440;11.084;2023-12-22T02:43:34;0.77;;;0.70;;
14686;SDS011;7431;49.440;11.084;2023-12-22T02:46:00;1.73;;;0.53;;
14686;SDS011;7431;49.440;11.084;2023-12-22T02:48:26;0.93;;;0.53;;
14686;SDS011;7431;49.440;11.084;2023-12-22T02:50:51;0.63;;;0.63;;
14686;SDS011;7431;49.440;11.084;2023-12-22T02:53:17;0.53;;;0.40;;
14686;SDS011;7431;49.440;11.084;2023-12-22T02:55:42;0.60;;;0.50;;
14686;SDS011;7431;49.440;11.084;2023-12-22T02:58:08;0.30;;;0.30;;
14686;SDS011;7431;49.440;11.084;2023-12-22T03:00:33;0.23;;;0.23;;
14686;SDS011;7431;49.440;11.084;2023-12-22T03:02:59;0.30;;;0.30;;
14686;SDS011;7431;49.440;11.084;2023-12-22T03:05:24;0.77;;;0.50;;
14686;SDS011;7431;49.440;11.084;2023-12-22T03:07:50;0.60;;;0.53;;
14686;SDS011;7431;49.440;11.084;2023-12-22T03:10:15;0.87;;;0.37;;
14686;SDS011;7431;49.440;11.084;2023-12-22T03:12:41;0.60;;;0.60;;
14686;SDS011;7431;49.440;11.084;2023-12-22T03:15:07;0.50;;;0.50;;
14686;SDS011;7431;49.440;11.084;2023-12-22T03:17:34;0.40;;;0.40;;
14686;SDS011;7431;49.440;11.084;2023-12-22T03:19:59;0.40;;;0.40;;
14686;SDS011;7431;49.440;11.084;2023-12-22T03:22:25;3.40;;;0.77;;
14686;SDS011;7431;49.440;11.084;2023-12-22T03:24:50;4.03;;;0.57;;
14686;SDS011;7431;49.440;11.084;2023-12-22T03:27:16;0.60;;;0.60;;
14686;SDS011;7431;49.440;11.084;2023-12-22T03:29:43;1.97;;;0.60;;
14686;SDS011;7431;49.440;11.084;2023-12-22T03:32:09;0.77;;;0.77;;
14686;SDS011;7431;49.440;11.084;2023-12-22T03:34:34;0.43;;;0.33;;
14686;SDS011;7431;49.440;11.084;2023-12-22T03:37:00;0.63;;;0.30;;
14686;SDS011;7431;49.440;11.084;2023-12-22T03:39:26;0.73;;;0.50;;
14686;SDS011;7431;49.440;11.084;2023-12-22T03:41:51;0.50;;;0.30;;
14686;SDS011;7431;49.440;11.084;2023-12-22T03:44:17;0.50;;;0.50;;
14686;SDS011;7431;49.440;11.084;2023-12-22T03:46:42;0.57;;;0.40;;
14686;SDS011;7431;49.440;11.084;2023-12-22T03:49:08;1.90;;;0.60;;
14686;SDS011;7431;49.440;11.084;2023-12-22T03:51:33;0.20;;;0.20;;
14686;SDS011;7431;49.440;11.084;2023-12-22T03:53:59;0.30;;;0.30;;
14686;SDS011;7431;49.440;11.084;2023-12-22T03:56:25;1.13;;;0.60;;
14686;SDS011;7431;49.440;11.084;2023-12-22T03:58:50;3.63;;;0.83;;
14686;SDS011;7431;49.440;11.084;2023-12-22T04:01:16;0.43;;;0.30;;
14686;SDS011;7431;49.440;11.084;2023-12-22T04:03:41;0.40;;;0.40;;
14686;SDS011;7431;49.440;11.084;2023-12-22T04:06:07;0.40;;;0.40;;
14686;SDS011;7431;49.440;11.084;2023-12-22T04:08:33;0.33;;;0.33;;
14686;SDS011;7431;49.440;11.084;2023-12-22T04:10:58;0.73;;;0.40;;
14686;SDS011;7431;49.440;11.084;2023-12-22T04:13:33;2.13;;;0.50;;
14686;SDS011;7431;49.440;11.084;2023-12-22T04:15:58;0.20;;;0.20;;
14686;SDS011;7431;49.440;11.084;2023-12-22T04:18:24;1.00;;;0.70;;
14686;SDS011;7431;49.440;11.084;2023-12-22T04:20:49;0.67;;;0.40;;
14686;SDS011;7431;49.440;11.084;2023-12-22T04:23:18;0.40;;;0.40;;
14686;SDS011;7431;49.440;11.084;2023-12-22T04:25:44;1.67;;;0.53;;
14686;SDS011;7431;49.440;11.084;2023-12-22T04:28:09;1.43;;;0.70;;
14686;SDS011;7431;49.440;11.084;2023-12-22T04:30:35;3.63;;;0.60;;
14686;SDS011;7431;49.440;11.084;2023-12-22T04:33:01;1.03;;;0.63;;
14686;SDS011;7431;49.440;11.084;2023-12-22T04:35:26;1.07;;;0.60;;
14686;SDS011;7431;49.440;11.084;2023-12-22T04:37:52;0.40;;;0.40;;
14686;SDS011;7431;49.440;11.084;2023-12-22T04:40:17;0.50;;;0.50;;
14686;SDS011;7431;49.440;11.084;2023-12-22T04:42:43;2.53;;;0.37;;
14686;SDS011;7431;49.440;11.084;2023-12-22T04:45:08;0.40;;;0.33;;
14686;SDS011;7431;49.440;11.084;2023-12-22T04:47:34;1.23;;;0.53;;
14686;SDS011;7431;49.440;11.084;2023-12-22T04:49:59;1.40;;;0.83;;
14686;SDS011;7431;49.440;11.084;2023-12-22T04:52:25;0.50;;;0.50;;
14686;SDS011;7431;49.440;11.084;2023-12-22T04:54:50;0.50;;;0.50;;
14686;SDS011;7431;49.440;11.084;2023-12-22T04:57:16;0.77;;;0.53;;
14686;SDS011;7431;49.440;11.084;2023-12-22T04:59:42;0.50;;;0.50;;
14686;SDS011;7431;49.440;11.084;2023-12-22T05:02:07;0.83;;;0.67;;
14686;SDS011;7431;49.440;11.084;2023-12-22T05:04:33;1.30;;;0.50;;
14686;SDS011;7431;49.440;11.084;2023-12-22T05:06:58;0.83;;;0.70;;
14686;SDS011;7431;49.440;11.084;2023-12-22T05:09:24;1.20;;;0.50;;
14686;SDS011;7431;49.440;11.084;2023-12-22T05:11:50;0.20;;;0.20;;
14686;SDS011;7431;49.440;11.084;2023-12-22T05:14:15;1.13;;;0.70;;
14686;SDS011;7431;49.440;11.084;2023-12-22T05:16:41;1.03;;;0.50;;
14686;SDS011;7431;49.440;11.084;2023-12-22T05:19:06;0.50;;;0.50;;
14686;SDS011;7431;49.440;11.084;2023-12-22T05:21:32;1.37;;;0.77;;
14686;SDS011;7431;49.440;11.084;2023-12-22T05:23:58;0.63;;;0.40;;
14686;SDS011;7431;49.440;11.084;2023-12-22T05:26:23;0.83;;;0.63;;
14686;SDS011;7431;49.440;11.084;2023-12-22T05:28:50;1.73;;;0.77;;
14686;SDS011;7431;49.440;11.084;2023-12-22T05:31:16;1.80;;;0.70;;
14686;SDS011;7431;49.440;11.084;2023-12-22T05:33:42;0.53;;;0.53;;
14686;SDS011;7431;49.440;11.084;2023-12-22T05:36:08;1.07;;;0.60;;
14686;SDS011;7431;49.440;11.084;2023-12-22T05:38:37;0.50;;;0.50;;
14686;SDS011;7431;49.440;11.084;2023-12-22T05:41:03;1.23;;;0.50;;
14686;SDS011;7431;49.440;11.084;2023-12-22T05:43:30;0.63;;;0.60;;
14686;SDS011;7431;49.440;11.084;2023-12-22T05:45:55;0.73;;;0.70;;
14686;SDS011;7431;49.440;11.084;2023-12-22T05:48:21;0.43;;;0.43;;
14686;SDS011;7431;49.440;11.084;2023-12-22T05:50:47;0.50;;;0.50;;
14686;SDS011;7431;49.440;11.084;2023-12-22T05:53:13;1.33;;;0.57;;
14686;SDS011;7431;49.440;11.084;2023-12-22T05:55:38;0.57;;;0.50;;
14686;SDS011;7431;49.440;11.084;2023-12-22T05:58:04;1.50;;;0.60;;
14686;SDS011;7431;49.440;11.084;2023-12-22T06:00:30;0.37;;;0.37;;
14686;SDS011;7431;49.440;11.084;2023-12-22T06:02:56;0.33;;;0.33;;
14686;SDS011;7431;49.440;11.084;2023-12-22T06:05:21;0.77;;;0.60;;
14686;SDS011;7431;49.440;11.084;2023-12-22T06:07:47;0.50;;;0.50;;
14686;SDS011;7431;49.440;11.084;2023-12-22T06:10:12;0.20;;;0.20;;
14686;SDS011;7431;49.440;11.084;2023-12-22T06:12:38;0.40;;;0.30;;
14686;SDS011;7431;49.440;11.084;2023-12-22T06:15:04;0.50;;;0.50;;
14686;SDS011;7431;49.440;11.084;2023-12-22T06:17:30;0.40;;;0.40;;
14686;SDS011;7431;49.440;11.084;2023-12-22T06:19:55;0.30;;;0.30;;
14686;SDS011;7431;49.440;11.084;2023-12-22T06:22:21;0.40;;;0.40;;
14686;SDS011;7431;49.440;11.084;2023-12-22T06:24:48;0.53;;;0.40;;
14686;SDS011;7431;49.440;11.084;2023-12-22T06:27:13;0.50;;;0.50;;
14686;SDS011;7431;49.440;11.084;2023-12-22T06:29:39;0.40;;;0.40;;
14686;SDS011;7431;49.440;11.084;2023-12-22T06:32:04;0.20;;;0.20;;
14686;SDS011;7431;49.440;11.084;2023-12-22T06:34:31;0.93;;;0.60;;
14686;SDS011;7431;49.440;11.084;2023-12-22T06:36:56;0.40;;;0.40;;
14686;SDS011;7431;49.440;11.084;2023-12-22T06:39:22;0.37;;;0.37;;
14686;SDS011;7431;49.440;11.084;2023-12-22T06:41:48;0.37;;;0.37;;
14686;SDS011;7431;49.440;11.084;2023-12-22T06:44:13;1.33;;;0.50;;
14686;SDS011;7431;49.440;11.084;2023-12-22T06:46:44;0.53;;;0.53;;
14686;SDS011;7431;49.440;11.084;2023-12-22T06:49:13;0.60;;;0.60;;
14686;SDS011;7431;49.440;11.084;2023-12-22T06:51:39;0.70;;;0.70;;
14686;SDS011;7431;49.440;11.084;2023-12-22T06:54:05;0.60;;;0.60;;
14686;SDS011;7431;49.440;11.084;2023-12-22T06:56:31;0.53;;;0.53;;
14686;SDS011;7431;49.440;11.084;2023-12-22T06:58:59;3.00;;;1.17;;
14686;SDS011;7431;49.440;11.084;2023-12-22T07:01:25;2.43;;;1.33;;
14686;SDS011;7431;49.440;11.084;2023-12-22T07:03:51;0.93;;;0.80;;
14686;SDS011;7431;49.440;11.084;2023-12-22T07:06:17;0.90;;;0.90;;
14686;SDS011;7431;49.440;11.084;2023-12-22T07:11:34;1.00;;;1.00;;
14686;SDS011;7431;49.440;11.084;2023-12-22T07:14:00;2.27;;;1.00;;
14686;SDS011;7431;49.440;11.084;2023-12-22T07:16:25;1.20;;;1.10;;
14686;SDS011;7431;49.440;11.084;2023-12-22T07:18:51;0.97;;;0.93;;
14686;SDS011;7431;49.440;11.084;2023-12-22T07:21:16;1.17;;;1.07;;
14686;SDS011;7431;49.440;11.084;2023-12-22T07:23:46;0.73;;;0.73;;
14686;SDS011;7431;49.440;11.084;2023-12-22T07:26:11;0.70;;;0.70;;
14686;SDS011;7431;49.440;11.084;2023-12-22T07:28:37;2.70;;;1.10;;
14686;SDS011;7431;49.440;11.084;2023-12-22T07:31:03;1.50;;;1.00;;
14686;SDS011;7431;49.440;11.084;2023-12-22T07:33:28;1.57;;;0.90;;
14686;SDS011;7431;49.440;11.084;2023-12-22T07:35:54;2.07;;;1.07;;
14686;SDS011;7431;49.440;11.084;2023-12-22T07:38:20;2.27;;;1.00;;
14686;SDS011;7431;49.440;11.084;2023-12-22T07:40:45;4.03;;;1.60;;
14686;SDS011;7431;49.440;11.084;2023-12-22T07:43:11;2.93;;;1.70;;
14686;SDS011;7431;49.440;11.084;2023-12-22T07:45:38;1.07;;;0.80;;
14686;SDS011;7431;49.440;11.084;2023-12-22T07:48:03;2.40;;;1.53;;
14686;SDS011;7431;49.440;11.084;2023-12-22T07:50:29;2.00;;;1.20;;
14686;SDS011;7431;49.440;11.084;2023-12-22T07:52:55;1.03;;;0.77;;
14686;SDS011;7431;49.440;11.084;2023-12-22T07:55:21;1.67;;;0.80;;
14686;SDS011;7431;49.440;11.084;2023-12-22T07:57:49;5.90;;;1.40;;
14686;SDS011;7431;49.440;11.084;2023-12-22T08:00:15;1.23;;;1.03;;
14686;SDS011;7431;49.440;11.084;2023-12-22T08:02:41;2.60;;;0.97;;
14686;SDS011;7431;49.440;11.084;2023-12-22T08:05:07;1.87;;;1.00;;
14686;SDS011;7431;49.440;11.084;2023-12-22T08:07:33;3.60;;;1.13;;
14686;SDS011;7431;49.440;11.084;2023-12-22T08:09:59;1.87;;;1.10;;
14686;SDS011;7431;49.440;11.084;2023-12-22T08:12:26;1.57;;;1.10;;
14686;SDS011;7431;49.440;11.084;2023-12-22T08:14:53;1.33;;;1.10;;
14686;SDS011;7431;49.440;11.084;2023-12-22T08:17:18;2.37;;;1.13;;
14686;SDS011;7431;49.440;11.084;2023-12-22T08:19:44;4.00;;;1.47;;
14686;SDS011;7431;49.440;11.084;2023-12-22T08:22:10;3.17;;;1.60;;
14686;SDS011;7431;49.440;11.084;2023-12-22T08:24:38;1.80;;;1.07;;
14686;SDS011;7431;49.440;11.084;2023-12-22T08:27:04;4.53;;;1.57;;
14686;SDS011;7431;49.440;11.084;2023-12-22T08:29:31;2.90;;;1.00;;
14686;SDS011;7431;49.440;11.084;2023-12-22T08:31:57;1.27;;;0.87;;
14686;SDS011;7431;49.440;11.084;2023-12-22T08:34:22;1.57;;;1.17;;
14686;SDS011;7431;49.440;11.084;2023-12-22T08:36:48;1.70;;;0.97;;
14686;SDS011;7431;49.440;11.084;2023-12-22T08:39:13;3.13;;;0.77;;
14686;SDS011;7431;49.440;11.084;2023-12-22T08:41:39;2.50;;;1.10;;
14686;SDS011;7431;49.440;11.084;2023-12-22T08:44:05;2.20;;;0.90;;
14686;SDS011;7431;49.440;11.084;2023-12-22T08:46:31;0.90;;;0.90;;
14686;SDS011;7431;49.440;11.084;2023-12-22T08:48:57;1.13;;;0.83;;
14686;SDS011;7431;49.440;11.084;2023-12-22T08:51:24;0.60;;;0.60;;
14686;SDS011;7431;49.440;11.084;2023-12-22T08:53:53;2.83;;;1.07;;
14686;SDS011;7431;49.440;11.084;2023-12-22T08:56:22;3.47;;;1.00;;
14686;SDS011;7431;49.440;11.084;2023-12-22T08:58:48;1.07;;;0.83;;
14686;SDS011;7431;49.440;11.084;2023-12-22T09:01:16;5.13;;;1.30;;
14686;SDS011;7431;49.440;11.084;2023-12-22T09:03:42;1.87;;;0.90;;
14686;SDS011;7431;49.440;11.084;2023-12-22T09:06:14;2.47;;;0.90;;
14686;SDS011;7431;49.440;11.084;2023-12-22T09:08:43;2.43;;;0.90;;
14686;SDS011;7431;49.440;11.084;2023-12-22T09:11:12;2.17;;;1.17;;
14686;SDS011;7431;49.440;11.084;2023-12-22T09:13:40;2.40;;;1.30;;
14686;SDS011;7431;49.440;11.084;2023-12-22T09:16:06;2.17;;;1.10;;
14686;SDS011;7431;49.440;11.084;2023-12-22T09:18:32;2.93;;;1.33;;
14686;SDS011;7431;49.440;11.084;2023-12-22T09:20:58;0.87;;;0.87;;
14686;SDS011;7431;49.440;11.084;2023-12-22T09:23:27;2.40;;;1.37;;
14686;SDS011;7431;49.440;11.084;2023-12-22T09:25:53;1.70;;;1.30;;
14686;SDS011;7431;49.440;11.084;2023-12-22T09:28:19;4.93;;;1.40;;
14686;SDS011;7431;49.440;11.084;2023-12-22T09:30:45;1.47;;;1.20;;
14686;SDS011;7431;49.440;11.084;2023-12-22T09:33:10;6.97;;;1.37;;
14686;SDS011;7431;49.440;11.084;2023-12-22T09:35:36;2.53;;;1.10;;
14686;SDS011;7431;49.440;11.084;2023-12-22T09:38:02;3.13;;;1.20;;
14686;SDS011;7431;49.440;11.084;2023-12-22T09:40:28;2.87;;;1.10;;
14686;SDS011;7431;49.440;11.084;2023-12-22T09:42:54;3.80;;;1.20;;
14686;SDS011;7431;49.440;11.084;2023-12-22T09:45:21;2.83;;;1.37;;
14686;SDS011;7431;49.440;11.084;2023-12-22T09:47:47;2.43;;;1.13;;
14686;SDS011;7431;49.440;11.084;2023-12-22T09:50:14;5.70;;;1.57;;
14686;SDS011;7431;49.440;11.084;2023-12-22T09:52:42;2.70;;;1.60;;
14686;SDS011;7431;49.440;11.084;2023-12-22T09:55:09;3.43;;;1.37;;
14686;SDS011;7431;49.440;11.084;2023-12-22T09:57:35;1.83;;;1.20;;
14686;SDS011;7431;49.440;11.084;2023-12-22T10:00:03;3.37;;;1.60;;
14686;SDS011;7431;49.440;11.084;2023-12-22T10:02:33;2.03;;;1.37;;
14686;SDS011;7431;49.440;11.084;2023-12-22T10:05:00;3.97;;;1.40;;
14686;SDS011;7431;49.440;11.084;2023-12-22T10:07:26;5.63;;;1.50;;
14686;SDS011;7431;49.440;11.084;2023-12-22T10:09:51;2.37;;;0.93;;
14686;SDS011;7431;49.440;11.084;2023-12-22T10:12:18;1.30;;;0.73;;
14686;SDS011;7431;49.440;11.084;2023-12-22T10:14:45;1.80;;;0.77;;
14686;SDS011;7431;49.440;11.084;2023-12-22T10:17:12;3.10;;;1.13;;
14686;SDS011;7431;49.440;11.084;2023-12-22T10:19:38;1.17;;;1.00;;
14686;SDS011;7431;49.440;11.084;2023-12-22T10:22:04;1.00;;;0.90;;
14686;SDS011;7431;49.440;11.084;2023-12-22T10:24:40;1.90;;;1.07;;
14686;SDS011;7431;49.440;11.084;2023-12-22T10:27:13;2.40;;;1.40;;
14686;SDS011;7431;49.440;11.084;2023-12-22T10:29:40;2.30;;;1.37;;
14686;SDS011;7431;49.440;11.084;2023-12-22T10:32:07;3.00;;;1.33;;
14686;SDS011;7431;49.440;11.084;2023-12-22T10:34:33;0.97;;;0.90;;
14686;SDS011;7431;49.440;11.084;2023-12-22T10:36:59;1.30;;;1.20;;
14686;SDS011;7431;49.440;11.084;2023-12-22T10:39:29;5.03;;;1.40;;
14686;SDS011;7431;49.440;11.084;2023-12-22T10:41:56;1.07;;;0.70;;
14686;SDS011;7431;49.440;11.084;2023-12-22T10:44:26;2.83;;;1.30;;
14686;SDS011;7431;49.440;11.084;2023-12-22T10:46:53;4.00;;;1.30;;
14686;SDS011;7431;49.440;11.084;2023-12-22T10:49:19;2.30;;;1.13;;
14686;SDS011;7431;49.440;11.084;2023-12-22T10:51:46;2.57;;;1.50;;
14686;SDS011;7431;49.440;11.084;2023-12-22T10:54:12;2.30;;;1.30;;
14686;SDS011;7431;49.440;11.084;2023-12-22T10:56:38;2.03;;;1.17;;
14686;SDS011;7431;49.440;11.084;2023-12-22T10:59:05;2.77;;;1.10;;
14686;SDS011;7431;49.440;11.084;2023-12-22T11:01:31;2.30;;;1.43;;
14686;SDS011;7431;49.440;11.084;2023-12-22T11:04:01;1.63;;;1.07;;
14686;SDS011;7431;49.440;11.084;2023-12-22T11:06:29;1.57;;;1.27;;
14686;SDS011;7431;49.440;11.084;2023-12-22T11:08:58;3.87;;;1.20;;
14686;SDS011;7431;49.440;11.084;2023-12-22T11:13:50;0.70;;;0.70;;
14686;SDS011;7431;49.440;11.084;2023-12-22T11:16:18;2.13;;;1.03;;
14686;SDS011;7431;49.440;11.084;2023-12-22T11:18:45;3.17;;;1.00;;
14686;SDS011;7431;49.440;11.084;2023-12-22T11:21:12;1.60;;;1.10;;
14686;SDS011;7431;49.440;11.084;2023-12-22T11:23:39;1.70;;;0.90;;
14686;SDS011;7431;49.440;11.084;2023-12-22T11:26:06;1.30;;;0.97;;
14686;SDS011;7431;49.440;11.084;2023-12-22T11:28:36;0.40;;;0.40;;
14686;SDS011;7431;49.440;11.084;2023-12-22T11:31:03;0.83;;;0.83;;
14686;SDS011;7431;49.440;11.084;2023-12-22T11:33:31;0.67;;;0.67;;
14686;SDS011;7431;49.440;11.084;2023-12-22T11:36:01;2.40;;;2.20;;
14686;SDS011;7431;49.440;11.084;2023-12-22T11:38:28;1.20;;;0.97;;
14686;SDS011;7431;49.440;11.084;2023-12-22T11:40:53;3.27;;;1.17;;
14686;SDS011;7431;49.440;11.084;2023-12-22T11:43:20;3.47;;;1.07;;
14686;SDS011;7431;49.440;11.084;2023-12-22T11:45:48;1.93;;;1.30;;
14686;SDS011;7431;49.440;11.084;2023-12-22T11:48:14;1.77;;;1.23;;
14686;SDS011;7431;49.440;11.084;2023-12-22T11:50:41;2.33;;;1.10;;
14686;SDS011;7431;49.440;11.084;2023-12-22T11:53:21;1.93;;;0.80;;
14686;SDS011;7431;49.440;11.084;2023-12-22T11:55:57;1.23;;;1.00;;
14686;SDS011;7431;49.440;11.084;2023-12-22T11:58:33;1.17;;;0.80;;
14686;SDS011;7431;49.440;11.084;2023-12-22T12:01:02;3.70;;;0.90;;
14686;SDS011;7431;49.440;11.084;2023-12-22T12:03:30;5.37;;;1.00;;
14686;SDS011;7431;49.440;11.084;2023-12-22T12:08:51;2.90;;;1.20;;
14686;SDS011;7431;49.440;11.084;2023-12-22T12:11:18;2.27;;;1.17;;
14686;SDS011;7431;49.440;11.084;2023-12-22T12:13:45;1.40;;;1.03;;
14686;SDS011;7431;49.440;11.084;2023-12-22T12:16:12;5.67;;;1.30;;
14686;SDS011;7431;49.440;11.084;2023-12-22T12:18:38;1.97;;;1.13;;
14686;SDS011;7431;49.440;11.084;2023-12-22T12:21:08;2.33;;;1.47;;
14686;SDS011;7431;49.440;11.084;2023-12-22T12:23:36;1.93;;;1.30;;
14686;SDS011;7431;49.440;11.084;2023-12-22T12:26:02;3.37;;;1.80;;
14686;SDS011;7431;49.440;11.084;2023-12-22T12:28:29;2.10;;;1.67;;
14686;SDS011;7431;49.440;11.084;2023-12-22T12:30:59;1.97;;;1.37;;
14686;SDS011;7431;49.440;11.084;2023-12-22T12:33:26;4.83;;;2.00;;
14686;SDS011;7431;49.440;11.084;2023-12-22T12:35:56;3.93;;;1.90;;
14686;SDS011;7431;49.440;11.084;2023-12-22T12:38:23;1.73;;;1.50;;
14686;SDS011;7431;49.440;11.084;2023-12-22T12:41:12;3.40;;;1.13;;
14686;SDS011;7431;49.440;11.084;2023-12-22T12:43:40;2.93;;;1.47;;
14686;SDS011;7431;49.440;11.084;2023-12-22T12:46:08;4.10;;;1.80;;
14686;SDS011;7431;49.440;11.084;2023-12-22T12:48:34;3.20;;;1.40;;
14686;SDS011;7431;49.440;11.084;2023-12-22T12:51:06;2.70;;;2.00;;
14686;SDS011;7431;49.440;11.084;2023-12-22T12:53:33;4.47;;;1.77;;
14686;SDS011;7431;49.440;11.084;2023-12-22T12:55:59;7.13;;;1.70;;
14686;SDS011;7431;49.440;11.084;2023-12-22T12:58:28;4.07;;;1.77;;
14686;SDS011;7431;49.440;11.084;2023-12-22T13:01:06;6.80;;;2.47;;
14686;SDS011;7431;49.440;11.084;2023-12-22T13:03:56;7.23;;;2.50;;
14686;SDS011;7431;49.440;11.084;2023-12-22T13:06:23;4.13;;;2.20;;
14686;SDS011;7431;49.440;11.084;2023-12-22T13:11:15;5.43;;;1.90;;
14686;SDS011;7431;49.440;11.084;2023-12-22T13:13:47;5.13;;;1.93;;
14686;SDS011;7431;49.440;11.084;2023-12-22T13:16:16;6.70;;;2.07;;
14686;SDS011;7431;49.440;11.084;2023-12-22T13:18:43;6.00;;;1.83;;
14686;SDS011;7431;49.440;11.084;2023-12-22T13:21:09;5.37;;;1.97;;
14686;SDS011;7431;49.440;11.084;2023-12-22T13:23:34;2.50;;;1.67;;
14686;SDS011;7431;49.440;11.084;2023-12-22T13:26:00;3.47;;;1.73;;
14686;SDS011;7431;49.440;11.084;2023-12-22T13:28:26;3.27;;;1.67;;
14686;SDS011;7431;49.440;11.084;2023-12-22T13:30:55;8.50;;;1.80;;
14686;SDS011;7431;49.440;11.084;2023-12-22T13:33:20;2.33;;;1.50;;
14686;SDS011;7431;49.440;11.084;2023-12-22T13:35:46;3.90;;;1.67;;
14686;SDS011;7431;49.440;11.084;2023-12-22T13:38:13;8.07;;;2.00;;
14686;SDS011;7431;49.440;11.084;2023-12-22T13:40:39;1.77;;;1.60;;
14686;SDS011;7431;49.440;11.084;2023-12-22T13:43:09;3.87;;;1.70;;
14686;SDS011;7431;49.440;11.084;2023-12-22T13:45:35;6.40;;;2.13;;
14686;SDS011;7431;49.440;11.084;2023-12-22T13:48:00;2.93;;;1.67;;
14686;SDS011;7431;49.440;11.084;2023-12-22T13:50:26;2.17;;;1.30;;
14686;SDS011;7431;49.440;11.084;2023-12-22T13:52:51;3.17;;;1.27;;
14686;SDS011;7431;49.440;11.084;2023-12-22T13:55:18;5.77;;;1.80;;
14686;SDS011;7431;49.440;11.084;2023-12-22T13:57:45;4.93;;;1.90;;
14686;SDS011;7431;49.440;11.084;2023-12-22T14:02:48;3.80;;;1.50;;
14686;SDS011;7431;49.440;11.084;2023-12-22T14:05:14;2.53;;;1.33;;
14686;SDS011;7431;49.440;11.084;2023-12-22T14:07:43;2.17;;;1.03;;
14686;SDS011;7431;49.440;11.084;2023-12-22T14:10:09;1.77;;;1.10;;
14686;SDS011;7431;49.440;11.084;2023-12-22T14:12:35;2.77;;;1.67;;
14686;SDS011;7431;49.440;11.084;2023-12-22T14:15:03;2.67;;;1.50;;
14686;SDS011;7431;49.440;11.084;2023-12-22T14:17:32;4.87;;;2.10;;
14686;SDS011;7431;49.440;11.084;2023-12-22T14:19:58;1.97;;;1.30;;
14686;SDS011;7431;49.440;11.084;2023-12-22T14:22:24;2.17;;;1.10;;
14686;SDS011;7431;49.440;11.084;2023-12-22T14:24:50;2.60;;;1.37;;
14686;SDS011;7431;49.440;11.084;2023-12-22T14:27:15;1.80;;;1.13;;
14686;SDS011;7431;49.440;11.084;2023-12-22T14:29:43;3.43;;;1.50;;
14686;SDS011;7431;49.440;11.084;2023-12-22T14:32:09;2.27;;;1.17;;
14686;SDS011;7431;49.440;11.084;2023-12-22T14:34:36;2.97;;;1.10;;
14686;SDS011;7431;49.440;11.084;2023-12-22T14:37:02;1.90;;;1.20;;
14686;SDS011;7431;49.440;11.084;2023-12-22T14:39:27;2.23;;;1.23;;
14686;SDS011;7431;49.440;11.084;2023-12-22T14:41:53;3.23;;;0.97;;
14686;SDS011;7431;49.440;11.084;2023-12-22T14:44:19;2.13;;;1.00;;
14686;SDS011;7431;49.440;11.084;2023-12-22T14:46:45;1.00;;;1.00;;
14686;SDS011;7431;49.440;11.084;2023-12-22T14:49:10;2.93;;;1.73;;
14686;SDS011;7431;49.440;11.084;2023-12-22T14:51:39;1.83;;;1.30;;
14686;SDS011;7431;49.440;11.084;2023-12-22T14:54:05;1.00;;;1.00;;
14686;SDS011;7431;49.440;11.084;2023-12-22T14:56:31;4.57;;;2.80;;
14686;SDS011;7431;49.440;11.084;2023-12-22T14:58:57;1.60;;;1.40;;
14686;SDS011;7431;49.440;11.084;2023-12-22T15:01:23;3.40;;;1.00;;